createdAt,value
2023-01-25T00:00:04.446Z,2.59
2023-01-25T00:03:05.917Z,2.63
2023-01-25T00:06:09.859Z,2.69
2023-01-25T00:09:11.947Z,2.72
2023-01-25T00:12:14.568Z,2.67
2023-01-25T00:15:15.943Z,2.76
2023-01-25T00:18:18.483Z,2.69
2023-01-25T00:21:21.589Z,2.62
2023-01-25T00:24:26.291Z,2.58
2023-01-25T00:27:29.282Z,2.58
2023-01-25T00:30:30.612Z,2.53
2023-01-25T00:33:45.283Z,2.59
2023-01-25T00:36:49.416Z,2.62
2023-01-25T00:39:53.181Z,2.69
2023-01-25T00:42:56.287Z,2.72
2023-01-25T00:46:00.754Z,2.68
2023-01-25T00:49:03.423Z,2.66
2023-01-25T00:52:05.811Z,2.65
2023-01-25T00:55:11.113Z,2.71
2023-01-25T00:58:12.427Z,2.75
2023-01-25T01:01:15.101Z,2.66
2023-01-25T01:07:39.043Z,2.65
2023-01-25T01:10:41.519Z,2.66
2023-01-25T01:17:04.784Z,2.58
2023-01-25T01:20:07.956Z,2.64
2023-01-25T01:23:09.288Z,2.66
2023-01-25T01:26:15.276Z,2.65
2023-01-25T01:29:17.975Z,2.71
2023-01-25T01:32:19.419Z,2.73
2023-01-25T01:35:22.109Z,2.74
2023-01-25T01:38:23.831Z,2.61
2023-01-25T01:41:27.339Z,2.53
2023-01-25T01:44:46.505Z,2.58
2023-01-25T01:47:48.036Z,2.59
2023-01-25T01:50:57.600Z,2.65
2023-01-25T01:54:03.640Z,2.69
2023-01-25T01:57:09.933Z,2.67
2023-01-25T02:00:15.206Z,2.67
2023-01-25T02:03:18.025Z,2.67
2023-01-25T02:06:26.121Z,2.66
2023-01-25T02:09:33.045Z,2.67
2023-01-25T02:12:37.652Z,2.72
2023-01-25T02:15:45.679Z,2.71
2023-01-25T02:18:46.994Z,2.71
2023-01-25T02:21:51.580Z,2.67
2023-01-25T02:25:02.368Z,2.64
2023-01-25T02:28:10.163Z,2.64
2023-01-25T02:31:11.866Z,2.65
2023-01-25T02:34:14.525Z,2.63
2023-01-25T02:37:17.260Z,2.66
2023-01-25T02:43:42.234Z,2.67
2023-01-25T02:46:45.791Z,2.67
2023-01-25T02:49:47.140Z,2.70
2023-01-25T02:52:49.697Z,2.72
2023-01-25T02:55:51.808Z,2.73
2023-01-25T02:58:54.794Z,2.73
2023-01-25T03:01:56.150Z,2.77
2023-01-25T03:04:58.777Z,2.79
2023-01-25T03:08:00.175Z,2.79
2023-01-25T03:11:05.357Z,2.78
2023-01-25T03:14:08.011Z,2.74
2023-01-25T03:17:09.387Z,2.70
2023-01-25T03:20:13.062Z,2.58
2023-01-25T03:23:15.718Z,2.54
2023-01-25T03:26:19.865Z,2.58
2023-01-25T03:29:22.496Z,2.67
2023-01-25T03:32:23.864Z,2.70
2023-01-25T03:35:26.602Z,2.62
2023-01-25T03:38:28.125Z,2.58
2023-01-25T03:41:30.104Z,2.52
2023-01-25T03:44:32.765Z,2.59
2023-01-25T03:47:34.050Z,2.58
2023-01-25T03:50:36.616Z,2.54
2023-01-25T03:53:37.918Z,2.66
2023-01-25T03:56:41.386Z,2.64
2023-01-25T03:59:42.701Z,2.67
2023-01-25T04:02:45.275Z,2.72
2023-01-25T04:05:46.778Z,2.71
2023-01-25T04:08:48.137Z,2.69
2023-01-25T04:11:50.385Z,2.69
2023-01-25T04:14:51.724Z,2.73
2023-01-25T04:17:52.997Z,2.72
2023-01-25T04:20:55.067Z,2.74
2023-01-25T04:23:56.415Z,2.73
2023-01-25T04:26:59.646Z,2.72
2023-01-25T04:30:00.911Z,2.69
2023-01-25T04:33:04.152Z,2.69
2023-01-25T04:36:07.174Z,2.71
2023-01-25T04:39:08.468Z,2.72
2023-01-25T04:42:11.966Z,2.79
2023-01-25T04:45:13.430Z,2.76
2023-01-25T04:48:16.256Z,2.77
2023-01-25T04:51:17.541Z,2.80
2023-01-25T04:54:20.040Z,2.81
2023-01-25T04:57:22.286Z,2.73
2023-01-25T05:00:23.776Z,2.74
2023-01-25T05:03:26.789Z,2.83
2023-01-25T05:06:30.276Z,2.74
2023-01-25T05:09:31.596Z,2.79
2023-01-25T05:12:34.971Z,2.78
2023-01-25T05:15:37.326Z,2.80
2023-01-25T05:18:48.303Z,2.79
2023-01-25T05:22:00.268Z,2.85
2023-01-25T05:25:04.014Z,2.91
2023-01-25T05:28:06.326Z,2.92
2023-01-25T05:34:28.823Z,2.90
2023-01-25T05:37:31.369Z,2.95
2023-01-25T05:40:32.845Z,2.91
2023-01-25T05:43:36.048Z,2.89
2023-01-25T05:46:37.371Z,2.84
2023-01-25T05:49:38.705Z,2.92
2023-01-25T05:52:40.229Z,2.96
2023-01-25T05:59:04.598Z,2.93
2023-01-25T06:02:06.183Z,2.87
2023-01-25T06:05:10.112Z,2.93
2023-01-25T06:08:11.764Z,2.99
2023-01-25T06:14:36.557Z,2.99
2023-01-25T06:17:37.833Z,2.96
2023-01-25T06:20:40.386Z,3.01
2023-01-25T06:23:43.632Z,2.99
2023-01-25T06:26:46.318Z,3.00
2023-01-25T06:29:48.417Z,3.08
2023-01-25T06:32:51.121Z,3.09
2023-01-25T06:35:53.720Z,3.05
2023-01-25T06:38:56.756Z,2.99
2023-01-25T06:41:58.025Z,3.03
2023-01-25T06:45:01.307Z,3.07
2023-01-25T06:48:02.770Z,3.00
2023-01-25T06:51:09.971Z,3.03
2023-01-25T06:54:11.290Z,3.10
2023-01-25T06:57:12.633Z,3.18
2023-01-25T07:00:16.116Z,3.15
2023-01-25T07:03:17.607Z,3.10
2023-01-25T07:06:19.444Z,3.12
2023-01-25T07:09:23.564Z,3.04
2023-01-25T07:12:27.821Z,3.00
2023-01-25T07:15:29.774Z,3.06
2023-01-25T07:18:33.629Z,3.10
2023-01-25T07:21:34.985Z,3.16
2023-01-25T07:24:37.602Z,3.01
2023-01-25T07:27:38.928Z,3.04
2023-01-25T07:30:41.493Z,3.15
2023-01-25T07:33:49.142Z,3.00
2023-01-25T07:36:51.743Z,3.02
2023-01-25T07:39:54.319Z,2.95
2023-01-25T07:42:55.733Z,2.97
2023-01-25T07:46:05.042Z,3.02
2023-01-25T07:49:07.752Z,3.01
2023-01-25T07:52:09.224Z,2.96
2023-01-25T07:55:12.117Z,2.94
2023-01-25T07:58:14.128Z,3.01
2023-01-25T08:01:18.882Z,2.97
2023-01-25T08:04:20.242Z,3.00
2023-01-25T08:07:23.987Z,3.04
2023-01-25T08:10:25.408Z,3.07
2023-01-25T08:13:28.034Z,3.02
2023-01-25T08:16:33.675Z,3.09
2023-01-25T08:19:35.063Z,3.08
2023-01-25T08:22:36.347Z,2.92
2023-01-25T08:25:39.991Z,2.92
2023-01-25T08:28:42.654Z,3.00
2023-01-25T08:31:44.687Z,3.17
2023-01-25T08:34:46.242Z,3.17
2023-01-25T08:37:47.542Z,3.00
2023-01-25T08:40:50.158Z,2.99
2023-01-25T08:43:52.483Z,2.94
2023-01-25T08:46:54.522Z,2.93
2023-01-25T08:49:55.922Z,2.91
2023-01-25T08:52:57.234Z,2.81
2023-01-25T08:56:03.304Z,2.78
2023-01-25T08:59:06.700Z,2.78
2023-01-25T09:02:11.428Z,2.73
2023-01-25T09:05:14.063Z,2.84
2023-01-25T09:08:16.640Z,2.89
2023-01-25T09:11:20.115Z,2.87
2023-01-25T09:14:21.639Z,2.89
2023-01-25T09:17:24.888Z,2.89
2023-01-25T09:20:26.289Z,2.78
2023-01-25T09:23:27.904Z,2.83
2023-01-25T09:26:30.746Z,2.82
2023-01-25T09:29:32.762Z,2.71
2023-01-25T09:32:35.012Z,2.83
2023-01-25T09:35:36.574Z,2.86
2023-01-25T09:38:39.872Z,2.91
2023-01-25T09:45:48.568Z,2.84
2023-01-25T09:49:07.598Z,2.87
2023-01-25T09:55:54.490Z,2.91
2023-01-25T09:59:01.237Z,2.85
2023-01-25T10:02:14.087Z,3.01
2023-01-25T10:05:21.128Z,2.88
2023-01-25T10:08:31.551Z,2.81
2023-01-25T10:11:33.478Z,2.82
2023-01-25T10:14:36.232Z,2.84
2023-01-25T10:17:40.168Z,2.90
2023-01-25T10:20:48.203Z,2.91
2023-01-25T10:24:08.878Z,2.93
2023-01-25T10:27:23.460Z,2.97
2023-01-25T10:30:27.865Z,2.88
2023-01-25T10:33:34.270Z,2.74
2023-01-25T10:36:37.141Z,2.69
2023-01-25T10:39:45.037Z,2.64
2023-01-25T10:42:53.697Z,2.65
2023-01-25T10:45:56.629Z,2.56
2023-01-25T10:49:02.526Z,2.76
2023-01-25T10:52:17.572Z,2.72
2023-01-25T10:55:22.395Z,2.63
2023-01-25T10:58:33.790Z,2.52
2023-01-25T11:01:36.695Z,2.63
2023-01-25T11:04:40.462Z,2.63
2023-01-25T11:07:42.529Z,2.73
2023-01-25T11:10:45.800Z,2.67
2023-01-25T11:13:47.321Z,2.55
2023-01-25T11:16:49.179Z,2.64
2023-01-25T11:20:08.115Z,2.68
2023-01-25T11:23:22.511Z,2.74
2023-01-25T11:26:25.393Z,2.69
2023-01-25T11:29:26.867Z,2.70
2023-01-25T11:32:29.461Z,2.67
2023-01-25T11:35:35.255Z,2.83
2023-01-25T11:38:39.788Z,2.73
2023-01-25T11:42:04.220Z,2.83
2023-01-25T11:45:33.356Z,2.80
2023-01-25T11:49:01.030Z,2.73
2023-01-25T11:52:13.980Z,2.82
2023-01-25T11:55:24.772Z,2.78
2023-01-25T11:58:42.908Z,2.91
2023-01-25T12:02:05.185Z,2.63
2023-01-25T12:05:23.151Z,2.86
2023-01-25T12:08:42.489Z,2.75
2023-01-25T12:11:59.547Z,2.63
2023-01-25T12:15:13.928Z,2.64
2023-01-25T12:18:36.492Z,2.62
2023-01-25T12:21:54.879Z,2.64
2023-01-25T12:25:02.931Z,2.61
2023-01-25T12:28:14.100Z,2.53
2023-01-25T12:31:22.988Z,2.62
2023-01-25T12:34:34.132Z,2.45
2023-01-25T12:37:40.996Z,2.53
2023-01-25T12:40:50.783Z,2.43
2023-01-25T12:43:55.906Z,2.27
2023-01-25T12:47:05.253Z,2.40
2023-01-25T12:50:17.882Z,2.50
2023-01-25T12:53:21.539Z,2.56
2023-01-25T12:56:33.929Z,2.56
2023-01-25T12:59:44.422Z,2.58
2023-01-25T13:02:59.900Z,2.54
2023-01-25T13:06:10.689Z,2.34
2023-01-25T13:12:53.976Z,2.43
2023-01-25T13:15:57.351Z,2.47
2023-01-25T13:18:59.191Z,2.44
2023-01-25T13:22:01.739Z,2.45
2023-01-25T13:25:09.789Z,2.39
2023-01-25T13:28:43.828Z,2.31
2023-01-25T13:31:51.929Z,2.35
2023-01-25T13:34:59.459Z,2.39
2023-01-25T13:38:20.774Z,2.41
2023-01-25T13:41:23.483Z,2.49
2023-01-25T13:44:27.763Z,2.57
2023-01-25T13:47:35.153Z,2.49
2023-01-25T13:50:43.908Z,2.52
2023-01-25T13:53:56.889Z,2.71
2023-01-25T13:57:05.103Z,2.74
2023-01-25T14:00:15.545Z,2.78
2023-01-25T14:03:19.419Z,2.36
2023-01-25T14:06:25.922Z,2.47
2023-01-25T14:09:29.074Z,2.42
2023-01-25T14:12:36.990Z,2.49
2023-01-25T14:15:38.349Z,2.49
2023-01-25T14:18:42.370Z,2.55
2023-01-25T14:21:43.753Z,2.37
2023-01-25T14:24:45.076Z,2.46
2023-01-25T14:27:50.988Z,2.44
2023-01-25T14:30:54.233Z,2.41
2023-01-25T14:33:57.804Z,2.43
2023-01-25T14:37:06.724Z,2.32
2023-01-25T14:40:12.375Z,2.46
2023-01-25T14:43:16.597Z,2.37
2023-01-25T14:46:27.913Z,2.45
2023-01-25T14:49:29.980Z,2.36
2023-01-25T14:52:31.324Z,2.29
2023-01-25T14:55:34.005Z,2.20
2023-01-25T14:58:35.468Z,2.25
2023-01-25T15:01:40.840Z,2.48
2023-01-25T15:04:55.623Z,2.54
2023-01-25T15:07:59.573Z,2.27
2023-01-25T15:11:33.932Z,2.26
2023-01-25T15:14:47.792Z,2.17
2023-01-25T15:17:50.759Z,2.04
2023-01-25T15:20:52.960Z,2.08
2023-01-25T15:23:57.076Z,2.16
2023-01-25T15:26:58.411Z,2.11
2023-01-25T15:30:00.968Z,2.19
2023-01-25T15:33:02.280Z,2.15
2023-01-25T15:39:23.996Z,2.14
2023-01-25T15:42:26.558Z,2.12
2023-01-25T15:45:27.890Z,2.12
2023-01-25T15:48:32.249Z,2.17
2023-01-25T15:51:35.989Z,2.14
2023-01-25T15:54:37.366Z,2.16
2023-01-25T15:57:40.030Z,2.28
2023-01-25T16:00:41.483Z,2.20
2023-01-25T16:03:44.108Z,2.09
2023-01-25T16:06:49.328Z,2.20
2023-01-25T16:09:51.917Z,2.19
2023-01-25T16:12:53.316Z,1.97
2023-01-25T16:15:56.414Z,1.86
2023-01-25T16:18:57.784Z,1.95
2023-01-25T16:22:00.998Z,2.00
2023-01-25T16:25:03.742Z,2.03
2023-01-25T16:28:06.486Z,2.02
2023-01-25T16:31:16.757Z,2.00
2023-01-25T16:34:25.247Z,2.07
2023-01-25T16:37:27.193Z,2.09
2023-01-25T16:40:36.285Z,2.01
2023-01-25T16:43:42.946Z,2.07
2023-01-25T16:46:44.762Z,2.07
2023-01-25T16:49:48.390Z,1.96
2023-01-25T16:52:50.771Z,2.05
2023-01-25T16:55:53.653Z,2.14
2023-01-25T16:58:57.089Z,2.13
2023-01-25T17:01:59.590Z,2.11
2023-01-25T17:05:00.930Z,2.14
2023-01-25T17:08:05.082Z,2.09
2023-01-25T17:11:06.903Z,1.99
2023-01-25T17:14:13.528Z,1.94
2023-01-25T17:17:14.904Z,1.88
2023-01-25T17:20:17.293Z,1.94
2023-01-25T17:23:19.316Z,1.98
2023-01-25T17:26:22.986Z,1.95
2023-01-25T17:29:26.144Z,1.86
2023-01-25T17:32:28.022Z,1.94
2023-01-25T17:35:31.127Z,1.96
2023-01-25T17:38:33.341Z,1.95
2023-01-25T17:41:36.118Z,1.98
2023-01-25T17:44:37.588Z,1.98
2023-01-25T17:47:40.113Z,2.01
2023-01-25T17:50:42.679Z,2.02
2023-01-25T17:53:44.968Z,1.97
2023-01-25T17:56:47.790Z,1.95
2023-01-25T17:59:49.446Z,1.98
2023-01-25T18:06:16.016Z,1.97
2023-01-25T18:09:19.562Z,2.08
2023-01-25T18:12:20.909Z,2.01
2023-01-25T18:15:22.932Z,1.95
2023-01-25T18:18:25.614Z,1.86
2023-01-25T18:24:50.927Z,1.95
2023-01-25T18:27:54.382Z,1.95
2023-01-25T18:31:00.146Z,2.00
2023-01-25T18:37:24.875Z,1.81
2023-01-25T18:40:30.335Z,1.85
2023-01-25T18:43:32.752Z,1.75
2023-01-25T18:46:35.420Z,1.75
2023-01-25T18:49:37.999Z,1.72
2023-01-25T18:52:39.355Z,1.72
2023-01-25T18:55:43.091Z,1.78
2023-01-25T18:58:46.295Z,1.63
2023-01-25T19:01:47.708Z,1.64
2023-01-25T19:04:49.581Z,1.51
2023-01-25T19:07:52.110Z,1.60
2023-01-25T19:10:59.527Z,1.51
2023-01-25T19:14:02.367Z,1.40
2023-01-25T19:17:03.797Z,1.43
2023-01-25T19:20:07.303Z,1.47
2023-01-25T19:23:08.565Z,1.51
2023-01-25T19:26:14.185Z,1.60
2023-01-25T19:29:15.867Z,1.58
2023-01-25T19:32:17.427Z,1.52
2023-01-25T19:35:19.047Z,1.50
2023-01-25T19:38:20.423Z,1.47
2023-01-25T19:41:24.942Z,1.43
2023-01-25T19:44:26.517Z,1.43
2023-01-25T19:47:27.774Z,1.52
2023-01-25T19:50:30.071Z,1.56
2023-01-25T19:53:31.385Z,1.60
2023-01-25T19:56:38.767Z,1.72
2023-01-25T19:59:40.098Z,1.56
2023-01-25T20:02:42.723Z,1.66
2023-01-25T20:05:44.043Z,1.73
2023-01-25T20:08:49.257Z,1.68
2023-01-25T20:11:51.242Z,1.77
2023-01-25T20:14:53.237Z,1.67
2023-01-25T20:17:56.627Z,1.60
2023-01-25T20:20:59.821Z,1.53
2023-01-25T20:24:04.041Z,1.52
2023-01-25T20:27:06.670Z,1.63
2023-01-25T20:30:08.984Z,1.59
2023-01-25T20:33:10.903Z,1.54
2023-01-25T20:36:13.405Z,1.51
2023-01-25T20:39:17.804Z,1.56
2023-01-25T20:42:19.792Z,1.61
2023-01-25T20:45:21.057Z,1.55
2023-01-25T20:48:22.492Z,1.60
2023-01-25T20:51:23.832Z,1.68
2023-01-25T20:54:25.442Z,1.69
2023-01-25T20:57:27.491Z,1.72
2023-01-25T21:00:28.797Z,1.69
2023-01-25T21:06:54.549Z,1.74
2023-01-25T21:09:55.910Z,1.78
2023-01-25T21:16:20.615Z,1.69
2023-01-25T21:19:22.152Z,1.71
2023-01-25T21:22:25.431Z,1.70
2023-01-25T21:25:26.754Z,1.62
2023-01-25T21:31:52.602Z,1.64
2023-01-25T21:34:55.198Z,1.67
2023-01-25T21:37:57.747Z,1.72
2023-01-25T21:41:00.440Z,1.57
2023-01-25T21:44:22.427Z,1.61
2023-01-25T21:47:30.517Z,1.70
2023-01-25T21:54:11.613Z,1.60
2023-01-25T21:57:14.141Z,1.55
2023-01-25T22:03:38.139Z,1.64
2023-01-25T22:06:40.263Z,1.61
2023-01-25T22:13:03.600Z,1.33
2023-01-25T22:16:08.066Z,1.27
2023-01-25T22:19:10.710Z,1.29
2023-01-25T22:22:13.494Z,1.30
2023-01-25T22:25:16.240Z,1.41
2023-01-25T22:28:19.345Z,1.46
2023-01-25T22:31:24.403Z,1.40
2023-01-25T22:34:27.755Z,1.32
2023-01-25T22:37:28.992Z,1.34
2023-01-25T22:40:31.820Z,1.36
2023-01-25T22:43:33.529Z,1.34
2023-01-25T22:46:37.543Z,1.28
2023-01-25T22:49:40.192Z,1.37
2023-01-25T22:52:41.491Z,1.33
2023-01-25T22:55:44.173Z,1.29
2023-01-25T22:58:46.745Z,1.31
2023-01-25T23:01:50.307Z,1.37
2023-01-25T23:04:51.681Z,1.44
2023-01-25T23:07:54.819Z,1.43
2023-01-25T23:14:40.321Z,1.40
2023-01-25T23:18:01.537Z,1.49
2023-01-25T23:21:05.115Z,1.40
2023-01-25T23:24:07.289Z,1.55
2023-01-25T23:27:09.885Z,1.56
2023-01-25T23:30:12.095Z,1.56
2023-01-25T23:33:14.225Z,1.61
2023-01-25T23:36:18.460Z,1.57
2023-01-25T23:39:20.406Z,1.54
2023-01-25T23:42:22.939Z,1.57
2023-01-25T23:45:24.282Z,1.55
2023-01-25T23:51:49.078Z,1.64
2023-01-25T23:54:50.352Z,1.60
2023-01-25T23:57:54.275Z,1.60
